sensor_id;sensor_type;location;lat;lon;timestamp;P1;durP1;ratioP1;P2;durP2;ratioP2
77206;SDS011;66190;50.708;7.906;2023-02-28T00:00:50;5.93;;;1.48;;
77206;SDS011;66190;50.708;7.906;2023-02-28T00:03:16;5.87;;;1.37;;
77206;SDS011;66190;50.708;7.906;2023-02-28T00:05:42;4.60;;;0.90;;
77206;SDS011;66190;50.708;7.906;2023-02-28T00:08:08;6.23;;;1.30;;
77206;SDS011;66190;50.708;7.906;2023-02-28T00:10:33;5.60;;;1.38;;
77206;SDS011;66190;50.708;7.906;2023-02-28T00:13:00;5.30;;;1.67;;
77206;SDS011;66190;50.708;7.906;2023-02-28T00:15:28;5.90;;;1.63;;
77206;SDS011;66190;50.708;7.906;2023-02-28T00:17:57;4.45;;;1.27;;
77206;SDS011;66190;50.708;7.906;2023-02-28T00:20:22;6.13;;;1.50;;
77206;SDS011;66190;50.708;7.906;2023-02-28T00:22:50;5.47;;;1.45;;
77206;SDS011;66190;50.708;7.906;2023-02-28T00:25:21;7.43;;;1.73;;
77206;SDS011;66190;50.708;7.906;2023-02-28T00:27:48;5.72;;;1.58;;
77206;SDS011;66190;50.708;7.906;2023-02-28T00:30:18;6.13;;;1.53;;
77206;SDS011;66190;50.708;7.906;2023-02-28T00:32:45;7.43;;;1.60;;
77206;SDS011;66190;50.708;7.906;2023-02-28T00:35:11;5.78;;;1.60;;
77206;SDS011;66190;50.708;7.906;2023-02-28T00:37:37;4.67;;;1.40;;
77206;SDS011;66190;50.708;7.906;2023-02-28T00:40:04;5.20;;;1.52;;
77206;SDS011;66190;50.708;7.906;2023-02-28T00:42:31;6.07;;;1.75;;
77206;SDS011;66190;50.708;7.906;2023-02-28T00:44:57;6.53;;;1.60;;
77206;SDS011;66190;50.708;7.906;2023-02-28T00:47:23;7.30;;;1.50;;
77206;SDS011;66190;50.708;7.906;2023-02-28T00:49:48;4.95;;;1.40;;
77206;SDS011;66190;50.708;7.906;2023-02-28T00:52:14;5.65;;;1.52;;
77206;SDS011;66190;50.708;7.906;2023-02-28T00:54:40;4.72;;;1.67;;
77206;SDS011;66190;50.708;7.906;2023-02-28T00:57:05;5.40;;;1.37;;
77206;SDS011;66190;50.708;7.906;2023-02-28T00:59:31;7.13;;;1.43;;
77206;SDS011;66190;50.708;7.906;2023-02-28T01:01:57;5.60;;;1.65;;
77206;SDS011;66190;50.708;7.906;2023-02-28T01:04:22;6.10;;;1.20;;
77206;SDS011;66190;50.708;7.906;2023-02-28T01:06:48;5.72;;;1.45;;
77206;SDS011;66190;50.708;7.906;2023-02-28T01:09:15;4.87;;;1.40;;
77206;SDS011;66190;50.708;7.906;2023-02-28T01:11:41;6.55;;;1.50;;
77206;SDS011;66190;50.708;7.906;2023-02-28T01:14:09;5.57;;;1.50;;
77206;SDS011;66190;50.708;7.906;2023-02-28T01:16:37;6.77;;;1.30;;
77206;SDS011;66190;50.708;7.906;2023-02-28T01:19:03;4.57;;;1.35;;
77206;SDS011;66190;50.708;7.906;2023-02-28T01:21:29;5.10;;;1.40;;
77206;SDS011;66190;50.708;7.906;2023-02-28T01:23:57;5.32;;;1.58;;
77206;SDS011;66190;50.708;7.906;2023-02-28T01:26:24;5.25;;;1.33;;
77206;SDS011;66190;50.708;7.906;2023-02-28T01:28:50;5.43;;;1.50;;
77206;SDS011;66190;50.708;7.906;2023-02-28T01:31:17;4.68;;;1.58;;
77206;SDS011;66190;50.708;7.906;2023-02-28T01:33:44;5.60;;;1.47;;
77206;SDS011;66190;50.708;7.906;2023-02-28T01:36:12;5.78;;;1.40;;
77206;SDS011;66190;50.708;7.906;2023-02-28T01:38:40;5.43;;;1.27;;
77206;SDS011;66190;50.708;7.906;2023-02-28T01:41:06;5.72;;;1.40;;
77206;SDS011;66190;50.708;7.906;2023-02-28T01:46:10;7.30;;;1.63;;
77206;SDS011;66190;50.708;7.906;2023-02-28T01:48:38;4.88;;;1.40;;
77206;SDS011;66190;50.708;7.906;2023-02-28T01:51:13;5.72;;;1.65;;
77206;SDS011;66190;50.708;7.906;2023-02-28T01:53:44;6.25;;;1.40;;
77206;SDS011;66190;50.708;7.906;2023-02-28T01:56:14;5.60;;;1.60;;
77206;SDS011;66190;50.708;7.906;2023-02-28T01:58:50;6.13;;;1.50;;
77206;SDS011;66190;50.708;7.906;2023-02-28T02:01:18;6.22;;;1.55;;
77206;SDS011;66190;50.708;7.906;2023-02-28T02:03:49;4.90;;;1.48;;
77206;SDS011;66190;50.708;7.906;2023-02-28T02:06:26;5.35;;;1.50;;
77206;SDS011;66190;50.708;7.906;2023-02-28T02:08:56;6.65;;;1.80;;
77206;SDS011;66190;50.708;7.906;2023-02-28T02:11:22;6.80;;;1.90;;
77206;SDS011;66190;50.708;7.906;2023-02-28T02:13:53;7.45;;;2.15;;
77206;SDS011;66190;50.708;7.906;2023-02-28T02:27:59;4.75;;;1.38;;
77206;SDS011;66190;50.708;7.906;2023-02-28T02:30:41;6.25;;;1.55;;
77206;SDS011;66190;50.708;7.906;2023-02-28T02:36:27;5.33;;;1.47;;
77206;SDS011;66190;50.708;7.906;2023-02-28T02:39:35;5.40;;;1.30;;
77206;SDS011;66190;50.708;7.906;2023-02-28T02:41:54;7.03;;;1.52;;
77206;SDS011;66190;50.708;7.906;2023-02-28T02:47:16;7.07;;;1.52;;
77206;SDS011;66190;50.708;7.906;2023-02-28T02:49:51;5.27;;;1.40;;
77206;SDS011;66190;50.708;7.906;2023-02-28T02:52:20;7.07;;;1.70;;
77206;SDS011;66190;50.708;7.906;2023-02-28T02:54:50;5.93;;;1.50;;
77206;SDS011;66190;50.708;7.906;2023-02-28T02:57:23;7.30;;;1.67;;
77206;SDS011;66190;50.708;7.906;2023-02-28T03:00:03;5.25;;;1.65;;
77206;SDS011;66190;50.708;7.906;2023-02-28T03:02:35;4.87;;;1.40;;
77206;SDS011;66190;50.708;7.906;2023-02-28T03:05:49;5.07;;;1.40;;
77206;SDS011;66190;50.708;7.906;2023-02-28T03:07:51;4.90;;;1.50;;
77206;SDS011;66190;50.708;7.906;2023-02-28T03:10:34;6.93;;;2.20;;
77206;SDS011;66190;50.708;7.906;2023-02-28T03:13:11;7.10;;;1.90;;
77206;SDS011;66190;50.708;7.906;2023-02-28T03:15:51;6.53;;;2.00;;
77206;SDS011;66190;50.708;7.906;2023-02-28T03:19:03;6.90;;;2.13;;
77206;SDS011;66190;50.708;7.906;2023-02-28T03:24:08;6.90;;;1.87;;
77206;SDS011;66190;50.708;7.906;2023-02-28T03:26:58;6.45;;;1.75;;
77206;SDS011;66190;50.708;7.906;2023-02-28T03:29:37;5.85;;;1.70;;
77206;SDS011;66190;50.708;7.906;2023-02-28T03:32:12;7.05;;;1.90;;
77206;SDS011;66190;50.708;7.906;2023-02-28T03:34:48;6.13;;;2.00;;
77206;SDS011;66190;50.708;7.906;2023-02-28T03:37:23;6.53;;;1.73;;
77206;SDS011;66190;50.708;7.906;2023-02-28T03:39:53;6.75;;;2.05;;
77206;SDS011;66190;50.708;7.906;2023-02-28T03:42:24;6.28;;;1.90;;
77206;SDS011;66190;50.708;7.906;2023-02-28T03:44:57;8.73;;;2.38;;
77206;SDS011;66190;50.708;7.906;2023-02-28T03:47:32;6.53;;;2.40;;
77206;SDS011;66190;50.708;7.906;2023-02-28T03:50:05;6.93;;;2.13;;
77206;SDS011;66190;50.708;7.906;2023-02-28T03:52:42;7.50;;;2.05;;
77206;SDS011;66190;50.708;7.906;2023-02-28T03:55:12;8.25;;;2.70;;
77206;SDS011;66190;50.708;7.906;2023-02-28T03:57:48;8.93;;;2.53;;
77206;SDS011;66190;50.708;7.906;2023-02-28T04:00:20;7.90;;;2.60;;
77206;SDS011;66190;50.708;7.906;2023-02-28T04:02:53;6.97;;;2.60;;
77206;SDS011;66190;50.708;7.906;2023-02-28T04:05:20;9.30;;;2.45;;
77206;SDS011;66190;50.708;7.906;2023-02-28T04:07:47;6.63;;;2.20;;
77206;SDS011;66190;50.708;7.906;2023-02-28T04:10:13;8.18;;;2.60;;
77206;SDS011;66190;50.708;7.906;2023-02-28T04:12:41;8.25;;;2.60;;
77206;SDS011;66190;50.708;7.906;2023-02-28T04:15:06;8.13;;;2.47;;
77206;SDS011;66190;50.708;7.906;2023-02-28T04:17:33;5.60;;;2.00;;
77206;SDS011;66190;50.708;7.906;2023-02-28T04:19:58;6.80;;;2.30;;
77206;SDS011;66190;50.708;7.906;2023-02-28T04:22:24;9.18;;;3.78;;
77206;SDS011;66190;50.708;7.906;2023-02-28T04:24:52;7.87;;;3.20;;
77206;SDS011;66190;50.708;7.906;2023-02-28T04:27:19;12.30;;;4.75;;
77206;SDS011;66190;50.708;7.906;2023-02-28T04:29:46;8.88;;;3.30;;
77206;SDS011;66190;50.708;7.906;2023-02-28T04:32:12;8.23;;;2.42;;
77206;SDS011;66190;50.708;7.906;2023-02-28T04:34:38;9.37;;;3.40;;
77206;SDS011;66190;50.708;7.906;2023-02-28T04:37:04;8.82;;;3.33;;
77206;SDS011;66190;50.708;7.906;2023-02-28T04:39:34;54.58;;;19.20;;
77206;SDS011;66190;50.708;7.906;2023-02-28T04:42:02;44.37;;;16.00;;
77206;SDS011;66190;50.708;7.906;2023-02-28T04:44:28;12.00;;;4.57;;
77206;SDS011;66190;50.708;7.906;2023-02-28T04:46:54;9.43;;;3.97;;
77206;SDS011;66190;50.708;7.906;2023-02-28T04:49:19;7.60;;;4.00;;
77206;SDS011;66190;50.708;7.906;2023-02-28T04:51:45;7.43;;;3.50;;
77206;SDS011;66190;50.708;7.906;2023-02-28T04:54:11;7.68;;;3.40;;
77206;SDS011;66190;50.708;7.906;2023-02-28T04:56:38;7.13;;;3.05;;
77206;SDS011;66190;50.708;7.906;2023-02-28T04:59:07;6.87;;;2.80;;
77206;SDS011;66190;50.708;7.906;2023-02-28T05:01:33;6.93;;;2.95;;
77206;SDS011;66190;50.708;7.906;2023-02-28T05:04:02;6.70;;;2.47;;
77206;SDS011;66190;50.708;7.906;2023-02-28T05:06:29;7.28;;;1.77;;
77206;SDS011;66190;50.708;7.906;2023-02-28T05:08:59;7.32;;;2.90;;
77206;SDS011;66190;50.708;7.906;2023-02-28T05:11:25;7.70;;;2.40;;
77206;SDS011;66190;50.708;7.906;2023-02-28T05:14:00;7.00;;;2.30;;
77206;SDS011;66190;50.708;7.906;2023-02-28T05:16:29;7.75;;;2.40;;
77206;SDS011;66190;50.708;7.906;2023-02-28T05:18:56;7.38;;;2.20;;
77206;SDS011;66190;50.708;7.906;2023-02-28T05:21:26;6.00;;;2.07;;
77206;SDS011;66190;50.708;7.906;2023-02-28T05:24:09;6.75;;;2.22;;
77206;SDS011;66190;50.708;7.906;2023-02-28T05:26:39;6.70;;;2.03;;
77206;SDS011;66190;50.708;7.906;2023-02-28T05:29:08;7.80;;;2.40;;
77206;SDS011;66190;50.708;7.906;2023-02-28T05:31:34;6.53;;;2.20;;
77206;SDS011;66190;50.708;7.906;2023-02-28T05:34:00;9.02;;;2.58;;
77206;SDS011;66190;50.708;7.906;2023-02-28T05:36:26;7.10;;;2.28;;
77206;SDS011;66190;50.708;7.906;2023-02-28T05:38:52;7.10;;;2.58;;
77206;SDS011;66190;50.708;7.906;2023-02-28T05:41:18;7.27;;;2.33;;
77206;SDS011;66190;50.708;7.906;2023-02-28T05:43:45;7.57;;;2.42;;
77206;SDS011;66190;50.708;7.906;2023-02-28T05:46:12;6.63;;;2.50;;
77206;SDS011;66190;50.708;7.906;2023-02-28T05:48:39;8.50;;;2.28;;
77206;SDS011;66190;50.708;7.906;2023-02-28T05:51:06;6.00;;;1.70;;
77206;SDS011;66190;50.708;7.906;2023-02-28T05:53:33;6.60;;;2.42;;
77206;SDS011;66190;50.708;7.906;2023-02-28T05:55:59;8.73;;;2.80;;
77206;SDS011;66190;50.708;7.906;2023-02-28T05:58:25;7.40;;;2.70;;
77206;SDS011;66190;50.708;7.906;2023-02-28T06:00:55;6.50;;;2.35;;
77206;SDS011;66190;50.708;7.906;2023-02-28T06:03:22;7.43;;;2.70;;
77206;SDS011;66190;50.708;7.906;2023-02-28T06:05:47;8.02;;;2.72;;
77206;SDS011;66190;50.708;7.906;2023-02-28T06:08:13;7.68;;;2.47;;
77206;SDS011;66190;50.708;7.906;2023-02-28T06:10:38;6.80;;;2.10;;
77206;SDS011;66190;50.708;7.906;2023-02-28T06:13:04;8.07;;;2.65;;
77206;SDS011;66190;50.708;7.906;2023-02-28T06:15:31;8.80;;;2.85;;
77206;SDS011;66190;50.708;7.906;2023-02-28T06:17:57;14.00;;;4.80;;
77206;SDS011;66190;50.708;7.906;2023-02-28T06:20:24;11.82;;;4.43;;
77206;SDS011;66190;50.708;7.906;2023-02-28T06:22:54;9.88;;;3.97;;
77206;SDS011;66190;50.708;7.906;2023-02-28T06:25:23;10.70;;;3.57;;
77206;SDS011;66190;50.708;7.906;2023-02-28T06:27:50;11.77;;;4.55;;
77206;SDS011;66190;50.708;7.906;2023-02-28T06:30:15;10.98;;;5.03;;
77206;SDS011;66190;50.708;7.906;2023-02-28T06:32:41;10.20;;;3.47;;
77206;SDS011;66190;50.708;7.906;2023-02-28T06:35:08;9.10;;;3.38;;
77206;SDS011;66190;50.708;7.906;2023-02-28T06:37:34;9.75;;;3.00;;
77206;SDS011;66190;50.708;7.906;2023-02-28T06:40:00;8.07;;;2.63;;
77206;SDS011;66190;50.708;7.906;2023-02-28T06:42:26;8.70;;;2.92;;
77206;SDS011;66190;50.708;7.906;2023-02-28T06:44:57;7.93;;;3.30;;
77206;SDS011;66190;50.708;7.906;2023-02-28T06:47:23;7.80;;;2.33;;
77206;SDS011;66190;50.708;7.906;2023-02-28T06:49:49;7.60;;;2.65;;
77206;SDS011;66190;50.708;7.906;2023-02-28T06:52:15;7.68;;;2.22;;
77206;SDS011;66190;50.708;7.906;2023-02-28T06:54:41;6.43;;;2.40;;
77206;SDS011;66190;50.708;7.906;2023-02-28T06:57:08;9.38;;;2.38;;
77206;SDS011;66190;50.708;7.906;2023-02-28T06:59:34;6.68;;;2.33;;
77206;SDS011;66190;50.708;7.906;2023-02-28T07:02:01;5.82;;;1.80;;
77206;SDS011;66190;50.708;7.906;2023-02-28T07:04:27;7.57;;;2.47;;
77206;SDS011;66190;50.708;7.906;2023-02-28T07:06:54;7.85;;;2.50;;
77206;SDS011;66190;50.708;7.906;2023-02-28T07:09:21;6.93;;;2.33;;
77206;SDS011;66190;50.708;7.906;2023-02-28T07:11:47;6.80;;;2.25;;
77206;SDS011;66190;50.708;7.906;2023-02-28T07:14:13;6.70;;;2.60;;
77206;SDS011;66190;50.708;7.906;2023-02-28T07:16:40;6.63;;;2.28;;
77206;SDS011;66190;50.708;7.906;2023-02-28T07:19:06;7.80;;;1.90;;
77206;SDS011;66190;50.708;7.906;2023-02-28T07:21:31;7.03;;;2.47;;
77206;SDS011;66190;50.708;7.906;2023-02-28T07:23:57;6.73;;;2.17;;
77206;SDS011;66190;50.708;7.906;2023-02-28T07:26:23;8.35;;;2.97;;
77206;SDS011;66190;50.708;7.906;2023-02-28T07:28:49;7.57;;;2.97;;
77206;SDS011;66190;50.708;7.906;2023-02-28T07:31:15;7.22;;;2.20;;
77206;SDS011;66190;50.708;7.906;2023-02-28T07:33:42;8.48;;;2.80;;
77206;SDS011;66190;50.708;7.906;2023-02-28T07:36:09;7.22;;;2.75;;
77206;SDS011;66190;50.708;7.906;2023-02-28T07:38:44;6.13;;;1.90;;
77206;SDS011;66190;50.708;7.906;2023-02-28T07:41:13;5.90;;;1.92;;
77206;SDS011;66190;50.708;7.906;2023-02-28T07:43:40;5.47;;;1.50;;
77206;SDS011;66190;50.708;7.906;2023-02-28T07:46:13;5.32;;;1.88;;
77206;SDS011;66190;50.708;7.906;2023-02-28T07:48:40;7.10;;;1.30;;
77206;SDS011;66190;50.708;7.906;2023-02-28T07:51:07;6.32;;;1.60;;
77206;SDS011;66190;50.708;7.906;2023-02-28T07:53:32;5.97;;;1.60;;
77206;SDS011;66190;50.708;7.906;2023-02-28T07:55:59;3.97;;;1.23;;
77206;SDS011;66190;50.708;7.906;2023-02-28T07:58:26;5.38;;;1.38;;
77206;SDS011;66190;50.708;7.906;2023-02-28T08:00:52;7.40;;;1.80;;
77206;SDS011;66190;50.708;7.906;2023-02-28T08:03:18;5.17;;;1.77;;
77206;SDS011;66190;50.708;7.906;2023-02-28T08:05:45;4.00;;;1.00;;
77206;SDS011;66190;50.708;7.906;2023-02-28T08:08:12;5.47;;;1.98;;
77206;SDS011;66190;50.708;7.906;2023-02-28T08:10:38;7.05;;;1.58;;
77206;SDS011;66190;50.708;7.906;2023-02-28T08:13:06;5.75;;;1.77;;
77206;SDS011;66190;50.708;7.906;2023-02-28T08:15:32;4.77;;;1.10;;
77206;SDS011;66190;50.708;7.906;2023-02-28T08:17:58;5.78;;;1.70;;
77206;SDS011;66190;50.708;7.906;2023-02-28T08:20:24;5.93;;;1.55;;
77206;SDS011;66190;50.708;7.906;2023-02-28T08:22:51;5.78;;;1.48;;
77206;SDS011;66190;50.708;7.906;2023-02-28T08:25:17;6.40;;;1.60;;
77206;SDS011;66190;50.708;7.906;2023-02-28T08:27:43;5.82;;;1.33;;
77206;SDS011;66190;50.708;7.906;2023-02-28T08:30:12;6.10;;;1.50;;
77206;SDS011;66190;50.708;7.906;2023-02-28T08:32:41;6.55;;;1.58;;
77206;SDS011;66190;50.708;7.906;2023-02-28T08:35:07;7.40;;;1.80;;
77206;SDS011;66190;50.708;7.906;2023-02-28T08:37:36;4.40;;;1.10;;
77206;SDS011;66190;50.708;7.906;2023-02-28T08:40:02;7.03;;;1.73;;
77206;SDS011;66190;50.708;7.906;2023-02-28T08:42:29;7.43;;;1.60;;
77206;SDS011;66190;50.708;7.906;2023-02-28T08:44:54;7.70;;;1.55;;
77206;SDS011;66190;50.708;7.906;2023-02-28T08:47:21;7.47;;;1.60;;
77206;SDS011;66190;50.708;7.906;2023-02-28T08:49:47;4.75;;;1.30;;
77206;SDS011;66190;50.708;7.906;2023-02-28T08:52:12;4.77;;;1.10;;
77206;SDS011;66190;50.708;7.906;2023-02-28T08:54:38;5.85;;;1.20;;
77206;SDS011;66190;50.708;7.906;2023-02-28T08:57:04;5.07;;;1.47;;
77206;SDS011;66190;50.708;7.906;2023-02-28T08:59:30;6.63;;;1.42;;
77206;SDS011;66190;50.708;7.906;2023-02-28T09:01:55;5.47;;;1.20;;
77206;SDS011;66190;50.708;7.906;2023-02-28T09:04:21;5.05;;;1.27;;
77206;SDS011;66190;50.708;7.906;2023-02-28T09:06:47;4.90;;;1.10;;
77206;SDS011;66190;50.708;7.906;2023-02-28T09:09:15;5.05;;;1.63;;
77206;SDS011;66190;50.708;7.906;2023-02-28T09:11:42;6.22;;;1.55;;
77206;SDS011;66190;50.708;7.906;2023-02-28T09:14:08;5.80;;;1.35;;
77206;SDS011;66190;50.708;7.906;2023-02-28T09:16:34;5.73;;;1.53;;
77206;SDS011;66190;50.708;7.906;2023-02-28T09:19:00;5.43;;;1.63;;
77206;SDS011;66190;50.708;7.906;2023-02-28T09:21:26;5.70;;;1.58;;
77206;SDS011;66190;50.708;7.906;2023-02-28T09:23:52;4.88;;;1.27;;
77206;SDS011;66190;50.708;7.906;2023-02-28T09:26:22;5.70;;;1.50;;
77206;SDS011;66190;50.708;7.906;2023-02-28T09:28:49;5.47;;;1.30;;
77206;SDS011;66190;50.708;7.906;2023-02-28T09:31:17;5.65;;;1.40;;
77206;SDS011;66190;50.708;7.906;2023-02-28T09:33:46;5.18;;;1.27;;
77206;SDS011;66190;50.708;7.906;2023-02-28T09:36:14;5.20;;;1.63;;
77206;SDS011;66190;50.708;7.906;2023-02-28T09:38:42;5.07;;;1.17;;
77206;SDS011;66190;50.708;7.906;2023-02-28T09:41:19;5.00;;;1.60;;
77206;SDS011;66190;50.708;7.906;2023-02-28T09:43:49;5.10;;;1.45;;
77206;SDS011;66190;50.708;7.906;2023-02-28T09:48:56;4.97;;;1.30;;
77206;SDS011;66190;50.708;7.906;2023-02-28T09:53:53;6.05;;;1.70;;
77206;SDS011;66190;50.708;7.906;2023-02-28T09:56:20;8.48;;;1.35;;
77206;SDS011;66190;50.708;7.906;2023-02-28T09:58:57;6.57;;;1.85;;
77206;SDS011;66190;50.708;7.906;2023-02-28T10:01:53;5.60;;;1.48;;
77206;SDS011;66190;50.708;7.906;2023-02-28T10:12:51;5.88;;;1.65;;
77206;SDS011;66190;50.708;7.906;2023-02-28T10:15:20;5.53;;;1.50;;
77206;SDS011;66190;50.708;7.906;2023-02-28T10:17:51;5.85;;;1.95;;
77206;SDS011;66190;50.708;7.906;2023-02-28T10:20:21;5.82;;;1.50;;
77206;SDS011;66190;50.708;7.906;2023-02-28T10:23:16;6.73;;;1.50;;
77206;SDS011;66190;50.708;7.906;2023-02-28T10:25:50;5.88;;;1.60;;
77206;SDS011;66190;50.708;7.906;2023-02-28T10:28:41;6.90;;;1.60;;
77206;SDS011;66190;50.708;7.906;2023-02-28T10:31:14;6.13;;;1.70;;
77206;SDS011;66190;50.708;7.906;2023-02-28T10:33:44;6.13;;;1.60;;
77206;SDS011;66190;50.708;7.906;2023-02-28T10:36:16;6.60;;;1.50;;
77206;SDS011;66190;50.708;7.906;2023-02-28T10:38:45;6.28;;;1.70;;
77206;SDS011;66190;50.708;7.906;2023-02-28T10:41:16;6.88;;;1.50;;
77206;SDS011;66190;50.708;7.906;2023-02-28T10:46:40;5.63;;;1.70;;
77206;SDS011;66190;50.708;7.906;2023-02-28T10:49:14;6.07;;;2.07;;
77206;SDS011;66190;50.708;7.906;2023-02-28T10:51:46;6.97;;;2.83;;
77206;SDS011;66190;50.708;7.906;2023-02-28T10:54:16;6.57;;;1.83;;
77206;SDS011;66190;50.708;7.906;2023-02-28T10:56:44;6.53;;;1.80;;
77206;SDS011;66190;50.708;7.906;2023-02-28T10:59:27;6.32;;;1.95;;
77206;SDS011;66190;50.708;7.906;2023-02-28T11:01:55;6.63;;;2.30;;
77206;SDS011;66190;50.708;7.906;2023-02-28T11:07:39;7.80;;;2.40;;
77206;SDS011;66190;50.708;7.906;2023-02-28T11:10:05;9.52;;;3.20;;
77206;SDS011;66190;50.708;7.906;2023-02-28T11:12:37;6.95;;;2.60;;
77206;SDS011;66190;50.708;7.906;2023-02-28T11:15:18;6.40;;;2.37;;
77206;SDS011;66190;50.708;7.906;2023-02-28T11:21:06;6.63;;;2.40;;
77206;SDS011;66190;50.708;7.906;2023-02-28T11:23:34;6.20;;;2.33;;
77206;SDS011;66190;50.708;7.906;2023-02-28T11:26:02;7.18;;;2.30;;
77206;SDS011;66190;50.708;7.906;2023-02-28T11:28:33;6.37;;;2.43;;
77206;SDS011;66190;50.708;7.906;2023-02-28T11:33:52;8.02;;;2.13;;
77206;SDS011;66190;50.708;7.906;2023-02-28T11:36:24;6.38;;;2.13;;
77206;SDS011;66190;50.708;7.906;2023-02-28T11:38:55;6.55;;;1.98;;
77206;SDS011;66190;50.708;7.906;2023-02-28T11:44:06;8.27;;;2.38;;
77206;SDS011;66190;50.708;7.906;2023-02-28T11:46:54;8.70;;;2.60;;
77206;SDS011;66190;50.708;7.906;2023-02-28T11:54:51;5.97;;;1.90;;
77206;SDS011;66190;50.708;7.906;2023-02-28T12:05:33;8.35;;;3.00;;
77206;SDS011;66190;50.708;7.906;2023-02-28T12:10:57;6.75;;;2.03;;
77206;SDS011;66190;50.708;7.906;2023-02-28T12:13:55;7.93;;;2.60;;
77206;SDS011;66190;50.708;7.906;2023-02-28T12:16:29;6.75;;;2.25;;
77206;SDS011;66190;50.708;7.906;2023-02-28T12:26:36;6.50;;;2.28;;
77206;SDS011;66190;50.708;7.906;2023-02-28T12:29:09;7.20;;;2.33;;
77206;SDS011;66190;50.708;7.906;2023-02-28T12:31:49;6.93;;;2.47;;
77206;SDS011;66190;50.708;7.906;2023-02-28T12:34:44;8.27;;;2.40;;
77206;SDS011;66190;50.708;7.906;2023-02-28T12:41:29;8.02;;;2.65;;
77206;SDS011;66190;50.708;7.906;2023-02-28T12:44:00;8.43;;;2.63;;
77206;SDS011;66190;50.708;7.906;2023-02-28T12:46:41;7.60;;;2.58;;
77206;SDS011;66190;50.708;7.906;2023-02-28T12:49:15;8.88;;;2.70;;
77206;SDS011;66190;50.708;7.906;2023-02-28T12:52:00;7.35;;;2.65;;
77206;SDS011;66190;50.708;7.906;2023-02-28T12:54:29;8.90;;;3.80;;
77206;SDS011;66190;50.708;7.906;2023-02-28T12:59:58;7.40;;;2.78;;
77206;SDS011;66190;50.708;7.906;2023-02-28T13:03:15;8.07;;;3.03;;
77206;SDS011;66190;50.708;7.906;2023-02-28T13:14:00;6.80;;;2.42;;
77206;SDS011;66190;50.708;7.906;2023-02-28T13:19:26;8.07;;;3.00;;
77206;SDS011;66190;50.708;7.906;2023-02-28T13:21:54;7.25;;;2.22;;
77206;SDS011;66190;50.708;7.906;2023-02-28T13:29:40;8.35;;;3.33;;
77206;SDS011;66190;50.708;7.906;2023-02-28T13:32:20;7.20;;;2.83;;
77206;SDS011;66190;50.708;7.906;2023-02-28T13:47:38;9.52;;;3.38;;
77206;SDS011;66190;50.708;7.906;2023-02-28T14:03:31;7.68;;;3.58;;
77206;SDS011;66190;50.708;7.906;2023-02-28T14:08:51;8.98;;;3.17;;
77206;SDS011;66190;50.708;7.906;2023-02-28T14:11:39;7.60;;;3.60;;
77206;SDS011;66190;50.708;7.906;2023-02-28T14:14:07;8.60;;;3.35;;
77206;SDS011;66190;50.708;7.906;2023-02-28T14:16:44;7.68;;;3.03;;
77206;SDS011;66190;50.708;7.906;2023-02-28T14:19:12;8.88;;;3.20;;
77206;SDS011;66190;50.708;7.906;2023-02-28T14:30:16;7.57;;;3.25;;
77206;SDS011;66190;50.708;7.906;2023-02-28T14:33:26;8.73;;;3.30;;
77206;SDS011;66190;50.708;7.906;2023-02-28T14:36:07;7.20;;;3.05;;
77206;SDS011;66190;50.708;7.906;2023-02-28T14:38:54;7.73;;;2.87;;
77206;SDS011;66190;50.708;7.906;2023-02-28T14:41:30;7.95;;;3.50;;
77206;SDS011;66190;50.708;7.906;2023-02-28T14:44:13;8.02;;;3.10;;
77206;SDS011;66190;50.708;7.906;2023-02-28T14:46:52;7.65;;;3.03;;
77206;SDS011;66190;50.708;7.906;2023-02-28T14:52:05;8.43;;;3.07;;
77206;SDS011;66190;50.708;7.906;2023-02-28T14:54:36;9.35;;;3.40;;
77206;SDS011;66190;50.708;7.906;2023-02-28T14:57:03;8.35;;;3.08;;
77206;SDS011;66190;50.708;7.906;2023-02-28T14:59:30;9.00;;;3.65;;
77206;SDS011;66190;50.708;7.906;2023-02-28T15:05:00;7.30;;;2.78;;
77206;SDS011;66190;50.708;7.906;2023-02-28T15:07:45;7.97;;;2.70;;
77206;SDS011;66190;50.708;7.906;2023-02-28T15:10:24;9.13;;;3.58;;
77206;SDS011;66190;50.708;7.906;2023-02-28T15:15:56;8.93;;;3.00;;
77206;SDS011;66190;50.708;7.906;2023-02-28T15:21:18;7.85;;;2.83;;
77206;SDS011;66190;50.708;7.906;2023-02-28T15:23:54;8.18;;;3.38;;
77206;SDS011;66190;50.708;7.906;2023-02-28T15:27:25;8.05;;;3.05;;
77206;SDS011;66190;50.708;7.906;2023-02-28T15:29:54;9.43;;;3.77;;
77206;SDS011;66190;50.708;7.906;2023-02-28T15:40:37;9.10;;;3.53;;
77206;SDS011;66190;50.708;7.906;2023-02-28T15:43:16;7.27;;;3.37;;
77206;SDS011;66190;50.708;7.906;2023-02-28T15:46:01;9.10;;;3.72;;
77206;SDS011;66190;50.708;7.906;2023-02-28T15:48:32;9.25;;;3.15;;
77206;SDS011;66190;50.708;7.906;2023-02-28T15:51:24;8.38;;;3.05;;
77206;SDS011;66190;50.708;7.906;2023-02-28T15:54:02;9.38;;;3.10;;
77206;SDS011;66190;50.708;7.906;2023-02-28T15:56:33;9.03;;;3.57;;
77206;SDS011;66190;50.708;7.906;2023-02-28T15:59:24;9.38;;;3.30;;
77206;SDS011;66190;50.708;7.906;2023-02-28T16:02:14;8.52;;;3.40;;
77206;SDS011;66190;50.708;7.906;2023-02-28T16:07:21;8.18;;;3.60;;
77206;SDS011;66190;50.708;7.906;2023-02-28T16:09:47;10.27;;;3.43;;
77206;SDS011;66190;50.708;7.906;2023-02-28T16:12:13;6.85;;;2.72;;
77206;SDS011;66190;50.708;7.906;2023-02-28T16:14:39;9.13;;;3.60;;
77206;SDS011;66190;50.708;7.906;2023-02-28T16:17:17;10.93;;;3.65;;
77206;SDS011;66190;50.708;7.906;2023-02-28T16:19:48;8.98;;;3.70;;
77206;SDS011;66190;50.708;7.906;2023-02-28T16:22:13;7.87;;;3.60;;
77206;SDS011;66190;50.708;7.906;2023-02-28T16:24:39;10.52;;;3.95;;
77206;SDS011;66190;50.708;7.906;2023-02-28T16:27:05;9.73;;;3.57;;
77206;SDS011;66190;50.708;7.906;2023-02-28T16:29:33;9.02;;;3.28;;
77206;SDS011;66190;50.708;7.906;2023-02-28T16:32:01;9.82;;;3.92;;
77206;SDS011;66190;50.708;7.906;2023-02-28T16:34:30;8.10;;;3.25;;
77206;SDS011;66190;50.708;7.906;2023-02-28T16:36:55;8.63;;;3.77;;
77206;SDS011;66190;50.708;7.906;2023-02-28T16:39:21;8.35;;;3.33;;
77206;SDS011;66190;50.708;7.906;2023-02-28T16:41:47;8.43;;;2.90;;
77206;SDS011;66190;50.708;7.906;2023-02-28T16:44:21;9.32;;;3.70;;
77206;SDS011;66190;50.708;7.906;2023-02-28T16:46:54;8.93;;;3.47;;
77206;SDS011;66190;50.708;7.906;2023-02-28T16:49:21;9.02;;;3.67;;
77206;SDS011;66190;50.708;7.906;2023-02-28T16:51:46;9.05;;;3.40;;
77206;SDS011;66190;50.708;7.906;2023-02-28T16:54:12;9.27;;;4.00;;
77206;SDS011;66190;50.708;7.906;2023-02-28T16:56:39;17.52;;;5.00;;
77206;SDS011;66190;50.708;7.906;2023-02-28T16:59:12;9.00;;;3.80;;
77206;SDS011;66190;50.708;7.906;2023-02-28T17:01:38;13.57;;;5.53;;
77206;SDS011;66190;50.708;7.906;2023-02-28T17:04:05;11.02;;;4.50;;
77206;SDS011;66190;50.708;7.906;2023-02-28T17:06:31;9.65;;;3.78;;
77206;SDS011;66190;50.708;7.906;2023-02-28T17:08:57;12.63;;;4.60;;
77206;SDS011;66190;50.708;7.906;2023-02-28T17:11:24;9.48;;;4.22;;
77206;SDS011;66190;50.708;7.906;2023-02-28T17:13:51;9.55;;;4.30;;
77206;SDS011;66190;50.708;7.906;2023-02-28T17:16:26;9.73;;;4.00;;
77206;SDS011;66190;50.708;7.906;2023-02-28T17:18:59;10.68;;;4.07;;
77206;SDS011;66190;50.708;7.906;2023-02-28T17:21:26;10.43;;;4.45;;
77206;SDS011;66190;50.708;7.906;2023-02-28T17:23:52;9.18;;;4.22;;
77206;SDS011;66190;50.708;7.906;2023-02-28T17:26:18;10.63;;;4.33;;
77206;SDS011;66190;50.708;7.906;2023-02-28T17:28:45;8.68;;;3.90;;
77206;SDS011;66190;50.708;7.906;2023-02-28T17:31:12;8.32;;;3.58;;
77206;SDS011;66190;50.708;7.906;2023-02-28T17:33:38;13.73;;;7.00;;
77206;SDS011;66190;50.708;7.906;2023-02-28T17:36:04;14.60;;;6.47;;
77206;SDS011;66190;50.708;7.906;2023-02-28T17:38:30;8.80;;;4.05;;
77206;SDS011;66190;50.708;7.906;2023-02-28T17:40:56;9.30;;;4.17;;
77206;SDS011;66190;50.708;7.906;2023-02-28T17:43:25;10.77;;;4.28;;